createdAt,value
2019-04-14T00:01:06.424Z,102553.03
2019-04-14T00:03:45.353Z,102550.72
2019-04-14T00:06:14.416Z,102551.81
2019-04-14T00:08:43.741Z,102555.09
2019-04-14T00:11:12.725Z,102550.48
2019-04-14T00:13:41.601Z,102554.58
2019-04-14T00:16:10.211Z,102553.03
2019-04-14T00:18:40.357Z,102551.92
2019-04-14T00:21:10.778Z,102548.05
2019-04-14T00:23:41.244Z,102547.42
2019-04-14T00:26:27.341Z,102548.48
2019-04-14T00:28:57.913Z,102535.21
2019-04-14T00:31:26.948Z,102541.10
2019-04-14T00:33:58.564Z,102533.30
2019-04-14T00:36:37.308Z,102533.39
2019-04-14T00:39:16.230Z,102534.59
2019-04-14T00:42:06.719Z,102536.25
2019-04-14T00:45:04.779Z,102530.41
2019-04-14T00:47:49.747Z,102532.50
2019-04-14T00:50:08.019Z,102534.48
2019-04-14T00:52:37.257Z,102529.84
2019-04-14T00:55:07.574Z,102524.78
2019-04-14T00:57:37.658Z,102526.62
2019-04-14T01:00:08.116Z,102526.27
2019-04-14T01:02:36.921Z,102531.11
2019-04-14T01:05:06.623Z,102529.82
2019-04-14T01:07:35.537Z,102525.33
2019-04-14T01:10:04.558Z,102531.91
2019-04-14T01:12:34.180Z,102532.22
2019-04-14T01:15:03.172Z,102529.27
2019-04-14T01:17:32.964Z,102531.92
2019-04-14T01:20:01.786Z,102530.41
2019-04-14T01:22:31.474Z,102531.59
2019-04-14T01:25:00.142Z,102533.22
2019-04-14T01:27:29.838Z,102531.94
2019-04-14T01:29:58.547Z,102532.65
2019-04-14T01:32:28.343Z,102534.42
2019-04-14T01:34:58.817Z,102531.25
2019-04-14T01:37:28.976Z,102532.08
2019-04-14T01:39:58.833Z,102535.94
2019-04-14T01:42:28.935Z,102537.54
2019-04-14T01:44:59.168Z,102527.19
2019-04-14T01:47:29.201Z,102535.05
2019-04-14T01:49:57.925Z,102534.71
2019-04-14T01:52:54.845Z,102529.77
2019-04-14T01:55:42.297Z,102541.14
2019-04-14T01:58:16.988Z,102535.20
2019-04-14T02:00:51.609Z,102533.03
2019-04-14T02:03:21.390Z,102539.38
2019-04-14T02:05:51.753Z,102537.55
2019-04-14T02:08:21.972Z,102542.11
2019-04-14T02:10:52.033Z,102545.02
2019-04-14T02:13:20.896Z,102542.11
2019-04-14T02:15:50.650Z,102540.83
2019-04-14T02:18:20.747Z,102536.99
2019-04-14T02:20:49.500Z,102542.31
2019-04-14T02:23:19.231Z,102535.14
2019-04-14T02:25:49.260Z,102542.85
2019-04-14T02:28:19.806Z,102545.20
2019-04-14T02:31:00.155Z,102542.71
2019-04-14T02:33:44.341Z,102534.02
2019-04-14T02:36:21.978Z,102538.28
2019-04-14T02:41:18.867Z,102539.88
2019-04-14T02:43:51.451Z,102542.31
2019-04-14T02:48:52.229Z,102538.68
2019-04-14T02:51:19.417Z,102543.00
2019-04-14T02:56:24.941Z,102540.59
2019-04-14T02:58:55.215Z,102539.31
2019-04-14T03:01:24.197Z,102541.86
2019-04-14T03:03:50.758Z,102548.78
2019-04-14T03:06:17.806Z,102549.66
2019-04-14T03:08:59.112Z,102549.44
2019-04-14T03:11:28.502Z,102547.00
2019-04-14T03:13:51.461Z,102552.16
2019-04-14T03:16:29.788Z,102551.03
2019-04-14T03:19:18.309Z,102548.80
2019-04-14T03:22:12.491Z,102550.15
2019-04-14T03:24:35.841Z,102545.80
2019-04-14T03:27:43.840Z,102549.27
2019-04-14T03:30:39.523Z,102551.35
2019-04-14T03:33:14.233Z,102545.52
2019-04-14T03:37:59.482Z,102548.69
2019-04-14T03:40:21.702Z,102547.00
2019-04-14T03:42:54.273Z,102541.86
2019-04-14T03:45:28.184Z,102545.32
2019-04-14T03:48:00.630Z,102550.66
2019-04-14T03:52:59.304Z,102539.38
2019-04-14T03:55:11.345Z,102543.91
2019-04-14T03:57:27.101Z,102541.95
2019-04-14T03:59:56.281Z,102541.97
2019-04-14T04:02:25.250Z,102546.14
2019-04-14T04:04:53.878Z,102544.60
2019-04-14T04:07:23.562Z,102544.20
2019-04-14T04:10:05.108Z,102543.88
2019-04-14T04:12:34.179Z,102547.17
2019-04-14T04:15:03.941Z,102548.23
2019-04-14T04:17:47.800Z,102543.80
2019-04-14T04:20:34.968Z,102543.80
2019-04-14T04:23:29.174Z,102549.60
2019-04-14T04:26:13.109Z,102540.34
2019-04-14T04:29:13.611Z,102548.00
2019-04-14T04:32:04.061Z,102543.45
2019-04-14T04:34:44.589Z,102546.43
2019-04-14T04:37:45.451Z,102547.72
2019-04-14T04:40:20.101Z,102556.89
2019-04-14T04:42:50.434Z,102554.64
2019-04-14T04:45:19.616Z,102556.09
2019-04-14T04:47:49.192Z,102547.48
2019-04-14T04:50:19.331Z,102550.29
2019-04-14T04:52:49.656Z,102548.20
2019-04-14T04:55:19.828Z,102559.16
2019-04-14T04:57:48.734Z,102548.37
2019-04-14T05:00:18.013Z,102557.70
2019-04-14T05:02:48.410Z,102559.63
2019-04-14T05:05:53.676Z,102561.41
2019-04-14T05:08:24.044Z,102556.66
2019-04-14T05:10:58.932Z,102556.39
2019-04-14T05:13:40.189Z,102556.39
2019-04-14T05:16:10.651Z,102555.19
2019-04-14T05:18:39.871Z,102562.91
2019-04-14T05:21:10.405Z,102567.75
2019-04-14T05:23:39.364Z,102559.70
2019-04-14T05:26:09.190Z,102556.13
2019-04-14T05:28:37.960Z,102567.41
2019-04-14T05:31:07.634Z,102571.47
2019-04-14T05:33:36.569Z,102571.47
2019-04-14T05:36:06.346Z,102574.69
2019-04-14T05:38:36.905Z,102575.58
2019-04-14T05:41:06.865Z,102576.14
2019-04-14T05:43:45.010Z,102577.39
2019-04-14T05:46:07.743Z,102586.28
2019-04-14T05:48:36.659Z,102586.28
2019-04-14T05:51:06.412Z,102590.47
2019-04-14T05:53:35.503Z,102599.57
2019-04-14T05:56:05.650Z,102599.57
2019-04-14T05:58:34.696Z,102607.23
2019-04-14T06:01:04.769Z,102609.36
2019-04-14T06:03:34.228Z,102610.52
2019-04-14T06:06:03.228Z,102610.52
2019-04-14T06:08:32.676Z,102621.55
2019-04-14T06:11:01.549Z,102621.55
2019-04-14T06:13:30.463Z,102620.10
2019-04-14T06:15:59.406Z,102625.82
2019-04-14T06:18:34.433Z,102624.45
2019-04-14T06:21:08.134Z,102630.17
2019-04-14T06:23:37.108Z,102630.17
2019-04-14T06:26:06.047Z,102636.78
2019-04-14T06:28:35.155Z,102632.27
2019-04-14T06:31:17.001Z,102624.45
2019-04-14T06:34:05.230Z,102624.45
2019-04-14T06:36:52.915Z,102626.41
2019-04-14T06:39:30.284Z,102625.41
2019-04-14T06:41:59.511Z,102625.41
2019-04-14T06:44:28.128Z,102635.25
2019-04-14T06:46:57.127Z,102624.13
2019-04-14T06:49:25.849Z,102613.77
2019-04-14T06:51:54.780Z,102616.42
2019-04-14T06:54:23.908Z,102620.37
2019-04-14T06:56:52.799Z,102620.37
2019-04-14T06:59:21.549Z,102625.93
2019-04-14T07:01:50.949Z,102620.66
2019-04-14T07:04:20.092Z,102620.34
2019-04-14T07:06:51.315Z,102620.34
2019-04-14T07:09:19.547Z,102629.36
2019-04-14T07:11:48.522Z,102624.41
2019-04-14T07:14:17.389Z,102625.69
2019-04-14T07:16:46.694Z,102620.61
2019-04-14T07:19:15.364Z,102614.59
2019-04-14T07:21:44.253Z,102612.73
2019-04-14T07:24:13.368Z,102619.69
2019-04-14T07:26:42.394Z,102620.66
2019-04-14T07:29:11.540Z,102619.46
2019-04-14T07:32:02.319Z,102623.23
2019-04-14T07:34:59.366Z,102627.51
2019-04-14T07:37:46.465Z,102616.53
2019-04-14T07:40:39.935Z,102616.53
2019-04-14T07:43:30.636Z,102630.03
2019-04-14T07:46:27.586Z,102640.00
2019-04-14T07:49:03.134Z,102640.00
2019-04-14T07:51:54.151Z,102635.73
2019-04-14T07:54:34.920Z,102633.30
2019-04-14T07:57:19.668Z,102642.34
2019-04-14T08:00:02.289Z,102647.99
2019-04-14T08:02:52.813Z,102644.53
2019-04-14T08:05:27.001Z,102654.67
2019-04-14T08:07:55.682Z,102647.67
2019-04-14T08:10:24.309Z,102647.91
2019-04-14T08:12:53.944Z,102649.86
2019-04-14T08:15:23.083Z,102649.86
2019-04-14T08:17:51.964Z,102644.85
2019-04-14T08:20:27.423Z,102644.85
2019-04-14T08:22:51.484Z,102647.41
2019-04-14T08:25:20.378Z,102648.30
2019-04-14T08:27:49.239Z,102643.94
2019-04-14T08:30:18.501Z,102643.61
2019-04-14T08:32:47.149Z,102638.22
2019-04-14T08:35:16.015Z,102641.69
2019-04-14T08:37:45.177Z,102647.42
2019-04-14T08:40:13.853Z,102646.25
2019-04-14T08:43:17.112Z,102647.94
2019-04-14T08:46:03.213Z,102651.07
2019-04-14T08:48:50.616Z,102649.83
2019-04-14T08:51:23.361Z,102650.23
2019-04-14T08:53:59.155Z,102653.11
2019-04-14T08:56:37.000Z,102650.26
2019-04-14T08:59:30.699Z,102658.70
2019-04-14T09:02:11.325Z,102664.48
2019-04-14T09:05:11.559Z,102657.72
2019-04-14T09:07:50.156Z,102657.16
2019-04-14T09:10:22.734Z,102663.70
2019-04-14T09:12:53.147Z,102661.48
2019-04-14T09:15:24.836Z,102658.45
2019-04-14T09:17:53.667Z,102660.39
2019-04-14T09:20:24.995Z,102653.42
2019-04-14T09:22:53.641Z,102652.53
2019-04-14T09:25:22.503Z,102655.73
2019-04-14T09:27:51.633Z,102651.18
2019-04-14T09:30:20.372Z,102651.52
2019-04-14T09:32:49.298Z,102659.00
2019-04-14T09:35:17.898Z,102652.26
2019-04-14T09:37:46.785Z,102656.67
2019-04-14T09:40:15.475Z,102656.81
2019-04-14T09:42:44.345Z,102658.81
2019-04-14T09:45:13.317Z,102658.00
2019-04-14T09:47:42.389Z,102581.41
2019-04-14T09:50:11.406Z,102635.39
2019-04-14T09:52:40.336Z,102642.23
2019-04-14T09:55:09.024Z,102644.23
2019-04-14T09:57:38.129Z,102651.29
2019-04-14T10:00:08.470Z,102646.28
2019-04-14T10:02:37.171Z,102652.48
2019-04-14T10:05:06.083Z,102655.42
2019-04-14T10:07:34.958Z,102654.38
2019-04-14T10:10:05.387Z,102655.15
2019-04-14T10:12:34.260Z,102655.15
2019-04-14T10:15:03.146Z,102665.74
2019-04-14T10:17:31.770Z,102667.58
2019-04-14T10:20:00.674Z,102671.68
2019-04-14T10:22:34.292Z,102673.80
2019-04-14T10:25:00.390Z,102668.55
2019-04-14T10:27:29.125Z,102673.80
2019-04-14T10:29:57.752Z,102680.33
2019-04-14T10:32:26.353Z,102683.56
2019-04-14T10:34:55.469Z,102684.09
2019-04-14T10:37:24.392Z,102686.21
2019-04-14T10:39:53.226Z,102686.21
2019-04-14T10:42:22.365Z,102698.13
2019-04-14T10:44:51.439Z,102698.13
2019-04-14T10:47:20.081Z,102693.29
2019-04-14T10:49:49.012Z,102688.46
2019-04-14T10:52:17.865Z,102692.41
2019-04-14T10:54:46.715Z,102692.41
2019-04-14T10:57:15.690Z,102692.19
2019-04-14T10:59:44.775Z,102687.00
2019-04-14T11:02:13.660Z,102680.41
2019-04-14T11:04:42.304Z,102683.22
2019-04-14T11:07:15.428Z,102686.82
2019-04-14T11:09:44.414Z,102684.88
2019-04-14T11:12:13.039Z,102685.52
2019-04-14T11:14:42.037Z,102689.84
2019-04-14T11:17:10.926Z,102679.58
2019-04-14T11:19:39.646Z,102673.94
2019-04-14T11:22:08.703Z,102667.55
2019-04-14T11:24:37.557Z,102665.61
2019-04-14T11:27:06.443Z,102670.70
2019-04-14T11:29:35.785Z,102671.67
2019-04-14T11:32:28.731Z,102667.09
2019-04-14T11:35:12.057Z,102687.59
2019-04-14T11:37:58.435Z,102679.85
2019-04-14T11:40:30.433Z,102671.16
2019-04-14T11:42:59.078Z,102674.52
2019-04-14T11:45:27.708Z,102673.44
2019-04-14T11:47:56.583Z,102675.25
2019-04-14T11:50:25.459Z,102671.20
2019-04-14T11:52:54.403Z,102684.89
2019-04-14T11:55:23.842Z,102680.45
2019-04-14T11:57:52.712Z,102687.02
2019-04-14T12:00:39.284Z,102673.38
2019-04-14T12:03:23.834Z,102682.69
2019-04-14T12:06:17.709Z,102689.49
2019-04-14T12:08:51.157Z,102683.41
2019-04-14T12:11:19.775Z,102682.77
2019-04-14T12:13:48.996Z,102688.15
2019-04-14T12:16:17.886Z,102682.53
2019-04-14T12:18:46.554Z,102681.94
2019-04-14T12:21:15.502Z,102691.27
2019-04-14T12:23:44.102Z,102687.78
2019-04-14T12:26:12.729Z,102692.69
2019-04-14T12:28:42.647Z,102680.27
2019-04-14T12:31:13.002Z,102691.02
2019-04-14T12:33:42.013Z,102682.18
2019-04-14T12:36:12.868Z,102690.25
2019-04-14T12:38:41.570Z,102683.72
2019-04-14T12:41:15.376Z,102684.48
2019-04-14T12:44:12.002Z,102678.25
2019-04-14T12:46:47.639Z,102679.81
2019-04-14T12:49:22.763Z,102681.66
2019-04-14T12:52:20.543Z,102681.75
2019-04-14T12:54:40.661Z,102676.69
2019-04-14T12:57:09.523Z,102672.31
2019-04-14T12:59:38.637Z,102667.42
2019-04-14T13:02:32.793Z,102672.97
2019-04-14T13:05:01.707Z,102673.25
2019-04-14T13:07:30.569Z,102675.22
2019-04-14T13:09:59.439Z,102661.13
2019-04-14T13:12:28.430Z,102675.45
2019-04-14T13:14:57.311Z,102667.22
2019-04-14T13:17:26.204Z,102662.52
2019-04-14T13:19:55.402Z,102661.80
2019-04-14T13:22:33.688Z,102658.78
2019-04-14T13:24:54.901Z,102656.30
2019-04-14T13:27:23.528Z,102652.16
2019-04-14T13:29:52.608Z,102657.33
2019-04-14T13:32:21.506Z,102665.52
2019-04-14T13:34:50.340Z,102664.88
2019-04-14T13:37:18.973Z,102668.83
2019-04-14T13:39:47.751Z,102656.37
2019-04-14T13:42:16.612Z,102652.38
2019-04-14T13:44:45.471Z,102654.27
2019-04-14T13:47:14.352Z,102650.61
2019-04-14T13:49:43.504Z,102652.52
2019-04-14T13:52:12.440Z,102660.21
2019-04-14T13:54:41.565Z,102650.72
2019-04-14T13:57:10.685Z,102659.60
2019-04-14T13:59:39.545Z,102658.13
2019-04-14T14:02:08.192Z,102658.89
2019-04-14T14:04:37.024Z,102652.86
2019-04-14T14:07:06.551Z,102660.95
2019-04-14T14:09:35.451Z,102655.91
2019-04-14T14:12:13.840Z,102658.44
2019-04-14T14:15:09.837Z,102664.73
2019-04-14T14:17:43.931Z,102666.61
2019-04-14T14:20:16.993Z,102670.59
2019-04-14T14:23:00.097Z,102671.94
2019-04-14T14:25:33.465Z,102670.75
2019-04-14T14:28:02.599Z,102680.53
2019-04-14T14:30:31.545Z,102677.78
2019-04-14T14:33:00.263Z,102669.73
2019-04-14T14:35:29.556Z,102675.05
2019-04-14T14:37:58.192Z,102673.53
2019-04-14T14:40:26.877Z,102677.84
2019-04-14T14:42:55.972Z,102680.64
2019-04-14T14:45:37.463Z,102679.10
2019-04-14T14:48:15.570Z,102670.06
2019-04-14T14:50:58.180Z,102681.61
2019-04-14T14:53:27.330Z,102688.63
2019-04-14T14:55:56.198Z,102688.64
2019-04-14T14:58:25.100Z,102691.86
2019-04-14T15:00:54.134Z,102694.56
2019-04-14T15:03:23.042Z,102690.99
2019-04-14T15:05:52.162Z,102685.38
2019-04-14T15:08:21.109Z,102685.20
2019-04-14T15:10:49.745Z,102694.44
2019-04-14T15:13:18.914Z,102691.69
2019-04-14T15:15:47.797Z,102696.11
2019-04-14T15:18:16.563Z,102693.69
2019-04-14T15:20:45.594Z,102684.13
2019-04-14T15:23:24.234Z,102683.42
2019-04-14T15:25:45.196Z,102686.72
2019-04-14T15:28:15.742Z,102686.49
2019-04-14T15:30:44.479Z,102680.86
2019-04-14T15:33:13.327Z,102696.28
2019-04-14T15:35:42.274Z,102692.05
2019-04-14T15:38:11.184Z,102688.83
2019-04-14T15:40:39.795Z,102690.23
2019-04-14T15:43:08.646Z,102690.38
2019-04-14T15:45:37.327Z,102698.95
2019-04-14T15:48:06.572Z,102704.23
2019-04-14T15:50:35.414Z,102693.86
2019-04-14T15:53:04.044Z,102702.21
2019-04-14T15:55:32.958Z,102701.95
2019-04-14T15:58:09.951Z,102696.45
2019-04-14T16:00:56.456Z,102699.62
2019-04-14T16:03:30.584Z,102710.86
2019-04-14T16:06:24.770Z,102717.00
2019-04-14T16:09:00.858Z,102710.97
2019-04-14T16:11:39.928Z,102704.59
2019-04-14T16:14:24.014Z,102713.72
2019-04-14T16:17:10.855Z,102709.51
2019-04-14T16:19:45.874Z,102706.30
2019-04-14T16:22:14.502Z,102708.98
2019-04-14T16:24:43.651Z,102712.58
2019-04-14T16:27:46.640Z,102706.50
2019-04-14T16:30:24.812Z,102712.99
2019-04-14T16:33:04.762Z,102716.94
2019-04-14T16:35:33.614Z,102712.52
2019-04-14T16:38:02.552Z,102716.71
2019-04-14T16:40:31.178Z,102717.93
2019-04-14T16:43:00.163Z,102721.60
2019-04-14T16:45:31.799Z,102723.77
2019-04-14T16:48:00.712Z,102719.52
2019-04-14T16:50:29.647Z,102735.23
2019-04-14T16:53:07.525Z,102735.52
2019-04-14T16:56:01.558Z,102738.61
2019-04-14T16:58:50.758Z,102745.63
2019-04-14T17:01:38.408Z,102739.93
2019-04-14T17:04:07.251Z,102741.69
2019-04-14T17:06:36.376Z,102740.84
2019-04-14T17:09:07.373Z,102747.38
2019-04-14T17:11:36.470Z,102754.22
2019-04-14T17:14:13.415Z,102762.94
2019-04-14T17:17:05.048Z,102761.24
2019-04-14T17:19:57.334Z,102761.24
2019-04-14T17:22:35.769Z,102761.87
2019-04-14T17:25:12.834Z,102761.94
2019-04-14T17:27:50.586Z,102767.75
2019-04-14T17:30:32.831Z,102767.75
2019-04-14T17:33:11.271Z,102766.92
2019-04-14T17:35:57.654Z,102769.26
2019-04-14T17:38:32.051Z,102777.75
2019-04-14T17:41:19.782Z,102781.42
2019-04-14T17:44:04.348Z,102786.11
2019-04-14T17:46:58.897Z,102791.77
2019-04-14T17:49:43.240Z,102791.77
2019-04-14T17:52:29.841Z,102793.95
2019-04-14T17:55:08.984Z,102789.94
2019-04-14T17:57:55.543Z,102806.19
2019-04-14T18:00:35.662Z,102806.19
2019-04-14T18:03:22.507Z,102809.69
2019-04-14T18:05:57.644Z,102808.47
2019-04-14T18:08:36.420Z,102809.00
2019-04-14T18:11:28.395Z,102819.83
2019-04-14T18:14:10.204Z,102822.73
2019-04-14T18:16:47.520Z,102826.19
2019-04-14T18:19:34.065Z,102830.35
2019-04-14T18:22:03.188Z,102828.03
2019-04-14T18:24:41.572Z,102828.03
2019-04-14T18:27:02.683Z,102842.27
2019-04-14T18:29:42.550Z,102846.84
2019-04-14T18:32:16.351Z,102834.59
2019-04-14T18:34:52.477Z,102849.00
2019-04-14T18:37:30.094Z,102849.70
2019-04-14T18:40:16.667Z,102856.98
2019-04-14T18:42:52.140Z,102850.11
2019-04-14T18:45:39.507Z,102851.11
2019-04-14T18:48:36.163Z,102854.25
2019-04-14T18:51:11.854Z,102871.73
2019-04-14T18:54:08.782Z,102858.39
2019-04-14T18:57:02.593Z,102864.64
2019-04-14T18:59:44.423Z,102866.48
2019-04-14T19:02:14.830Z,102864.31
2019-04-14T19:04:43.949Z,102868.04
2019-04-14T19:07:12.553Z,102869.48
2019-04-14T19:09:41.485Z,102873.13
2019-04-14T19:12:28.016Z,102874.48
2019-04-14T19:15:03.947Z,102892.99
2019-04-14T19:17:43.974Z,102879.69
2019-04-14T19:20:13.771Z,102880.39
2019-04-14T19:22:42.384Z,102882.09
2019-04-14T19:25:11.367Z,102884.70
2019-04-14T19:27:42.409Z,102886.47
2019-04-14T19:30:11.163Z,102889.13
2019-04-14T19:32:40.122Z,102880.81
2019-04-14T19:35:09.079Z,102887.98
2019-04-14T19:37:37.938Z,102894.05
2019-04-14T19:40:07.543Z,102889.51
2019-04-14T19:42:36.276Z,102892.90
2019-04-14T19:45:05.802Z,102887.73
2019-04-14T19:47:34.665Z,102888.73
2019-04-14T19:50:03.373Z,102894.27
2019-04-14T19:52:32.386Z,102897.67
2019-04-14T19:55:01.304Z,102895.15
2019-04-14T19:57:30.392Z,102895.15
2019-04-14T19:59:59.243Z,102899.52
2019-04-14T20:02:28.135Z,102903.71
2019-04-14T20:04:56.728Z,102903.71
2019-04-14T20:07:25.639Z,102895.23
2019-04-14T20:09:54.265Z,102895.16
2019-04-14T20:12:23.108Z,102906.23
2019-04-14T20:14:52.336Z,102906.23
2019-04-14T20:17:31.605Z,102908.33
2019-04-14T20:20:18.335Z,102910.63
2019-04-14T20:23:05.725Z,102910.63
2019-04-14T20:26:05.998Z,102909.10
2019-04-14T20:28:42.578Z,102916.00
2019-04-14T20:31:24.642Z,102916.00
2019-04-14T20:33:53.578Z,102910.95
2019-04-14T20:36:22.465Z,102914.34
2019-04-14T20:38:51.396Z,102916.59
2019-04-14T20:41:20.272Z,102932.44
2019-04-14T20:43:49.407Z,102932.44
2019-04-14T20:46:20.476Z,102934.59
2019-04-14T20:48:49.372Z,102941.05
2019-04-14T20:51:18.090Z,102943.66
2019-04-14T20:53:47.318Z,102947.86
2019-04-14T20:56:16.024Z,102947.86
2019-04-14T20:58:44.731Z,102945.45
2019-04-14T21:01:13.773Z,102945.45
2019-04-14T21:04:07.265Z,102959.70
2019-04-14T21:06:56.043Z,102957.44
2019-04-14T21:09:31.651Z,102965.00
2019-04-14T21:12:22.571Z,102965.00
2019-04-14T21:15:13.577Z,102960.47
2019-04-14T21:17:49.007Z,102961.91
2019-04-14T21:20:25.995Z,102961.91
2019-04-14T21:23:14.418Z,102963.12
2019-04-14T21:26:00.271Z,102972.09
2019-04-14T21:28:36.771Z,102966.94
2019-04-14T21:31:27.674Z,102962.19
2019-04-14T21:34:21.722Z,102962.19
2019-04-14T21:37:15.508Z,102958.23
2019-04-14T21:40:06.184Z,102967.86
2019-04-14T21:42:34.799Z,102973.29
2019-04-14T21:45:04.028Z,102973.29
2019-04-14T21:47:32.710Z,102976.21
2019-04-14T21:50:01.806Z,102975.92
2019-04-14T21:52:39.889Z,102975.34
2019-04-14T21:55:08.785Z,102975.34
2019-04-14T21:57:45.052Z,102976.04
2019-04-14T22:00:39.793Z,102978.02
2019-04-14T22:03:27.696Z,102977.14
2019-04-14T22:06:05.953Z,102981.98
2019-04-14T22:08:38.489Z,102980.40
2019-04-14T22:11:08.793Z,102984.16
2019-04-14T22:13:37.734Z,102985.17
2019-04-14T22:16:06.454Z,102986.06
2019-04-14T22:18:35.594Z,102987.74
2019-04-14T22:21:04.335Z,102985.77
2019-04-14T22:23:33.030Z,102990.43
2019-04-14T22:26:01.692Z,102999.93
2019-04-14T22:28:30.574Z,103000.20
2019-04-14T22:30:59.215Z,103000.13
2019-04-14T22:33:27.840Z,103004.59
2019-04-14T22:35:56.796Z,103009.92
2019-04-14T22:38:25.658Z,103007.83
2019-04-14T22:40:55.087Z,103004.47
2019-04-14T22:43:23.749Z,103010.60
2019-04-14T22:45:52.756Z,103007.73
2019-04-14T22:48:21.725Z,103003.18
2019-04-14T22:50:50.350Z,103011.60
2019-04-14T22:53:19.258Z,103009.52
2019-04-14T22:55:48.116Z,103006.33
2019-04-14T22:58:17.093Z,103007.89
2019-04-14T23:00:53.441Z,103011.09
2019-04-14T23:03:50.696Z,103013.53
2019-04-14T23:06:34.241Z,103010.54
2019-04-14T23:09:25.584Z,103021.06
2019-04-14T23:12:03.273Z,103019.34
2019-04-14T23:14:38.939Z,103019.67
2019-04-14T23:17:21.870Z,103022.34
2019-04-14T23:19:56.214Z,103029.63
2019-04-14T23:22:42.868Z,103035.83
2019-04-14T23:25:11.825Z,103037.11
2019-04-14T23:27:40.452Z,103036.62
2019-04-14T23:30:09.735Z,103039.09
2019-04-14T23:32:38.689Z,103039.98
2019-04-14T23:35:07.731Z,103036.81
2019-04-14T23:37:36.345Z,103040.83
2019-04-14T23:40:05.502Z,103037.47
2019-04-14T23:42:34.092Z,103033.70
2019-04-14T23:45:02.717Z,103028.66
2019-04-14T23:47:31.624Z,103030.70
2019-04-14T23:50:00.879Z,103026.83
2019-04-14T23:52:29.472Z,103036.57
2019-04-14T23:54:58.333Z,103037.59
2019-04-14T23:57:27.668Z,103031.22
2019-04-14T23:59:56.685Z,103032.11
